Tropical Cyclones
[Index]
Main Index Home Page Stock Weather Photos Extreme Storms Discussion Storm News and Storm Chasing Reports Tropical Cyclones / Hurricanes / Typhoons Weather Data and Links Wild Fires / Bushfires Weather Observation Techniques Weather Picture Catalogue Tornado Pictures and Reports Stock Video Footage and DVDs for sale
Season 1990-1991 Tropical Cyclone SINA Track Map
Season 1990-1991 Summaries: [BoM-AU] [JTWC-AU] [JTWC-SIO] [JTWC-SPAC] [JTWC-SH]
<<- Previous TC | JTWC 1990-1991 Season | Next TC ->>

click for intensity scale information  Lat/long Grid: Show Hide

 Date Labels: Show Hide

Joint Typhoon Warning Centre Cyclone Data

Name: SINA

23 Nov 1990 06:00 UTC to 29 Nov 1990 12:00 UTC

    date/time    lat    long     hPa   cat  kts
1990-11-23 06    7.0   174.6                  20          
1990-11-23 12    7.5   174.7                  20          
1990-11-23 18    8.1   174.8                  25          
1990-11-24 00    8.8   174.6                  25          
1990-11-24 06    9.6   174.4                  25          
1990-11-24 12   10.3   174.0                  30          
1990-11-24 18   10.7   173.4                  30          
1990-11-25 00   11.0   173.2                  35          
1990-11-25 06   11.6   173.0            1     40          
1990-11-25 12   12.1   173.0            1     45          
1990-11-25 18   12.7   173.0            2     55          
1990-11-26 00   13.4   173.0            2     65          
1990-11-26 06   14.2   173.4            3     85          
1990-11-26 12   15.1   173.8            4    100          
1990-11-26 18   15.9   174.3            4    115          
1990-11-27 00   16.6   174.8            5    125          
1990-11-27 06   17.3   175.6            5    125          
1990-11-27 12   18.1   176.7            5    125          
1990-11-27 18   18.5   177.9            4    115          
1990-11-28 00   18.9   179.2            4    110          
1990-11-28 06   19.3   179.5W           4    105          
1990-11-28 12   19.7   178.1W           4    100          
1990-11-28 18   20.2   176.8W           3     90          
1990-11-29 00   20.6   175.4W           3     85          
1990-11-29 06   20.7   174.1W           3     75          
1990-11-29 12   20.7   172.7W           2     65          
Winds are 1-min average.

Tropical cyclone tracks developed by Michael Bath using data from the Joint Typhoon Warning Centre Best Tracks and Google Maps.


[Australian Severe Weather index] [Copyright Notice] [Email Contacts] [Search This Site] [Privacy Policy]
Document: tropical_cyclone_sina.htm Updated: 18 September 2016